Time;durP1;ratioP1;P1;durP2;ratioP2;P2;SDS_P1;SDS_P2;PMS_P1;PMS_P2;Temp;Humidity;BMP_temperature;BMP_pressure;BME280_temperature;BME280_humidity;BME280_pressure;Samples;Min_cycle;Max_cycle;Signal;HPM_P1;HPM_P2
2021/10/04 00:00:40;;;;;;;4.53;2.70;;;;;;;15.60;74.57;96185.16;4986208;28;20054;-75
2021/10/04 00:03:07;;;;;;;4.43;2.72;;;;;;;15.58;74.98;96187.47;4975126;28;20054;-74
2021/10/04 00:05:34;;;;;;;4.40;2.83;;;;;;;15.57;75.03;96181.19;4966638;28;20069;-74
2021/10/04 00:08:00;;;;;;;4.30;2.83;;;;;;;15.59;74.28;96184.38;4967691;28;20058;-75
2021/10/04 00:10:27;;;;;;;3.80;2.65;;;;;;;15.55;74.45;96175.25;4979283;28;20445;-75
2021/10/04 00:12:55;;;;;;;4.57;2.80;;;;;;;15.57;74.14;96169.44;4986814;28;20054;-75
2021/10/04 00:15:23;;;;;;;4.03;2.70;;;;;;;15.58;74.47;96180.03;4985205;28;20058;-74
2021/10/04 00:17:49;;;;;;;3.33;2.53;;;;;;;15.57;74.33;96174.91;4986574;28;20141;-75
2021/10/04 00:20:17;;;;;;;5.45;3.00;;;;;;;15.52;74.41;96173.22;4985350;28;20062;-75
2021/10/04 00:22:44;;;;;;;4.25;2.60;;;;;;;15.47;74.54;96169.94;4986089;28;20681;-75
2021/10/04 00:25:11;;;;;;;5.28;2.78;;;;;;;15.38;74.55;96179.13;4985450;28;20054;-75
2021/10/04 00:27:38;;;;;;;4.43;2.42;;;;;;;15.31;75.13;96183.66;4985994;28;20047;-75
2021/10/04 00:30:08;;;;;;;4.45;2.28;;;;;;;15.32;74.61;96186.03;4986078;28;20069;-74
2021/10/04 00:32:35;;;;;;;3.40;2.10;;;;;;;15.33;74.95;96187.63;4985456;28;20046;-74
2021/10/04 00:35:01;;;;;;;3.78;2.35;;;;;;;15.32;74.91;96175.06;4984728;28;20060;-73
2021/10/04 00:37:28;;;;;;;3.00;2.00;;;;;;;15.34;75.00;96172.75;4985486;28;20061;-75
2021/10/04 00:39:54;;;;;;;3.50;2.10;;;;;;;15.33;74.85;96171.19;4986235;28;20133;-76
2021/10/04 00:42:21;;;;;;;3.38;2.00;;;;;;;15.32;74.79;96177.03;4985160;28;20050;-75
2021/10/04 00:44:48;;;;;;;4.60;2.30;;;;;;;15.30;74.94;96179.34;4986367;28;20077;-75
2021/10/04 00:47:16;;;;;;;3.97;2.25;;;;;;;15.34;74.73;96189.22;4985687;28;20042;-78
2021/10/04 00:49:43;;;;;;;4.90;2.13;;;;;;;15.38;74.20;96195.59;4985376;28;20053;-75
2021/10/04 00:52:10;;;;;;;3.90;2.20;;;;;;;15.39;74.37;96183.47;4985462;28;20061;-74
2021/10/04 00:54:37;;;;;;;5.95;2.33;;;;;;;15.43;74.76;96180.03;4985071;28;20073;-75
2021/10/04 00:57:04;;;;;;;2.60;1.90;;;;;;;15.45;74.53;96184.00;4985538;28;20058;-74
2021/10/04 00:59:31;;;;;;;4.68;2.17;;;;;;;15.45;74.88;96188.69;4984874;28;20054;-75
2021/10/04 01:01:58;;;;;;;3.38;2.30;;;;;;;15.38;75.05;96192.06;4986134;28;20460;-75
2021/10/04 01:04:26;;;;;;;4.32;2.30;;;;;;;15.38;74.15;96192.88;4984839;28;20057;-74
2021/10/04 01:06:53;;;;;;;4.95;2.42;;;;;;;15.38;74.02;96195.59;4985851;28;20082;-75
2021/10/04 01:09:20;;;;;;;3.80;2.65;;;;;;;15.38;74.07;96187.38;4984863;28;20054;-75
2021/10/04 01:11:47;;;;;;;2.90;2.25;;;;;;;15.39;74.22;96197.19;4985267;28;20054;-75
2021/10/04 01:14:13;;;;;;;3.63;2.45;;;;;;;15.34;73.93;96191.97;4984884;28;20390;-75
2021/10/04 01:16:40;;;;;;;4.65;2.85;;;;;;;15.31;74.09;96186.41;4985106;28;20051;-75
2021/10/04 01:19:06;;;;;;;4.57;2.33;;;;;;;15.27;74.73;96193.75;4985452;28;20051;-75
2021/10/04 01:21:34;;;;;;;4.07;2.75;;;;;;;15.27;74.91;96186.31;4985206;28;20038;-75
2021/10/04 01:24:01;;;;;;;5.88;2.13;;;;;;;15.30;74.53;96199.31;4985723;28;20061;-75
2021/10/04 01:26:27;;;;;;;4.00;2.25;;;;;;;15.29;74.73;96196.91;4984806;28;20042;-75
2021/10/04 01:28:54;;;;;;;4.20;2.38;;;;;;;15.29;74.93;96192.22;4985508;28;20057;-74
2021/10/04 01:31:22;;;;;;;6.30;2.72;;;;;;;15.29;75.31;96197.72;4984318;28;20058;-75
2021/10/04 01:33:49;;;;;;;5.70;2.38;;;;;;;15.29;75.83;96203.19;4984887;28;20054;-75
2021/10/04 01:36:16;;;;;;;6.63;2.60;;;;;;;15.27;75.74;96204.72;4984706;28;20528;-74
2021/10/04 01:38:43;;;;;;;4.22;2.50;;;;;;;15.28;75.86;96193.38;4984752;28;20050;-75
2021/10/04 01:41:10;;;;;;;4.72;2.70;;;;;;;15.32;75.89;96196.22;4985185;28;20502;-74
2021/10/04 01:43:36;;;;;;;4.07;2.55;;;;;;;15.34;76.08;96194.72;4985588;28;20050;-75
2021/10/04 01:46:03;;;;;;;5.75;3.53;;;;;;;15.38;75.74;96194.81;4985875;28;20497;-74
2021/10/04 01:48:29;;;;;;;4.47;2.50;;;;;;;15.36;75.83;96195.16;4987824;28;20076;-75
2021/10/04 01:50:56;;;;;;;3.92;2.47;;;;;;;15.33;75.36;96193.13;4987293;28;20054;-75
2021/10/04 01:53:23;;;;;;;4.10;2.38;;;;;;;15.33;75.45;96182.16;4986869;28;20046;-75
2021/10/04 01:55:51;;;;;;;3.17;2.33;;;;;;;15.39;75.45;96183.47;4988392;28;20076;-74
2021/10/04 01:58:17;;;;;;;3.10;2.15;;;;;;;15.38;75.67;96184.63;4987781;28;20050;-74
2021/10/04 02:00:44;;;;;;;4.47;2.35;;;;;;;15.43;75.15;96185.53;4988372;28;20050;-74
2021/10/04 02:03:11;;;;;;;5.22;3.05;;;;;;;15.40;75.45;96187.03;4987770;28;20050;-76
2021/10/04 02:05:37;;;;;;;4.38;2.80;;;;;;;15.39;75.79;96186.22;4987618;28;20063;-76
2021/10/04 02:08:05;;;;;;;4.07;2.55;;;;;;;15.40;74.92;96187.84;4988431;28;20061;-75
2021/10/04 02:10:34;;;;;;;4.22;2.55;;;;;;;15.36;74.62;96181.47;4987683;28;20046;-74
2021/10/04 02:13:05;;;;;;;3.95;2.58;;;;;;;15.31;75.07;96184.47;4988107;28;20050;-75
2021/10/04 02:15:32;;;;;;;7.85;3.10;;;;;;;15.25;75.41;96196.84;4987311;28;20068;-75
2021/10/04 02:18:00;;;;;;;4.40;2.50;;;;;;;15.21;75.85;96201.44;4988416;28;20054;-75
2021/10/04 02:20:30;;;;;;;4.25;2.90;;;;;;;15.23;75.76;96196.38;4987899;28;20062;-75
2021/10/04 02:23:04;;;;;;;4.97;2.67;;;;;;;15.27;76.00;96191.78;4986276;28;20432;-75
2021/10/04 02:25:30;;;;;;;35.63;7.55;;;;;;;15.34;75.36;96188.44;4988123;28;20542;-75
2021/10/04 02:27:57;;;;;;;19.60;4.88;;;;;;;15.31;75.65;96183.66;4987613;28;20080;-75
2021/10/04 02:30:26;;;;;;;4.13;2.40;;;;;;;15.28;75.85;96179.66;4987832;28;20054;-75
2021/10/04 02:32:53;;;;;;;4.50;2.20;;;;;;;15.27;75.72;96182.75;4987373;28;20046;-75
2021/10/04 02:35:21;;;;;;;3.22;1.98;;;;;;;15.24;75.88;96183.47;4987301;28;20058;-75
2021/10/04 02:37:48;;;;;;;4.63;2.10;;;;;;;15.20;75.43;96177.91;4987566;28;20059;-75
2021/10/04 02:40:15;;;;;;;3.00;2.20;;;;;;;15.22;75.69;96174.78;4987425;28;20050;-75
2021/10/04 02:42:42;;;;;;;14.80;5.95;;;;;;;15.26;75.10;96176.50;4987507;28;20053;-76
2021/10/04 02:45:11;;;;;;;3.35;2.20;;;;;;;15.29;74.62;96175.75;4986959;28;20069;-75
2021/10/04 02:47:39;;;;;;;5.25;2.60;;;;;;;15.28;74.80;96171.44;4987994;28;20057;-75
2021/10/04 02:50:08;;;;;;;4.68;2.08;;;;;;;15.26;74.98;96167.47;4986676;28;20054;-76
2021/10/04 02:52:34;;;;;;;4.10;2.22;;;;;;;15.26;75.19;96171.00;4986296;28;20058;-75
2021/10/04 02:55:01;;;;;;;3.85;2.78;;;;;;;15.27;74.63;96172.59;4986593;28;20046;-75
2021/10/04 02:57:27;;;;;;;7.72;2.35;;;;;;;15.27;74.98;96167.09;4986508;28;20053;-75
2021/10/04 02:59:54;;;;;;;3.85;2.20;;;;;;;15.28;74.91;96167.91;4986847;28;20058;-75
2021/10/04 03:02:21;;;;;;;3.65;2.50;;;;;;;15.29;74.68;96159.31;4987239;28;20054;-75
2021/10/04 03:04:49;;;;;;;5.30;2.30;;;;;;;15.29;74.82;96173.03;4987149;28;20424;-76
2021/10/04 03:07:15;;;;;;;5.03;2.53;;;;;;;15.32;74.72;96175.06;4987098;28;20050;-74
2021/10/04 03:09:42;;;;;;;6.68;2.95;;;;;;;15.37;74.15;96177.56;4987493;28;20054;-76
2021/10/04 03:12:08;;;;;;;3.65;2.20;;;;;;;15.34;73.94;96189.22;4986496;28;20062;-74
2021/10/04 03:14:35;;;;;;;3.50;2.28;;;;;;;15.30;73.81;96188.34;4987165;28;20058;-74
2021/10/04 03:17:02;;;;;;;4.13;2.75;;;;;;;15.33;73.67;96184.88;4985502;28;20931;-74
2021/10/04 03:19:29;;;;;;;2.55;1.75;;;;;;;15.33;73.29;96182.16;4987661;28;20054;-74
2021/10/04 03:21:57;;;;;;;6.90;3.42;;;;;;;15.25;73.46;96185.06;4986497;28;20061;-75
2021/10/04 03:24:23;;;;;;;6.72;2.75;;;;;;;15.17;73.87;96184.06;4986770;28;20057;-75
2021/10/04 03:26:50;;;;;;;5.30;2.72;;;;;;;15.11;74.34;96180.00;4986835;28;20699;-75
2021/10/04 03:29:16;;;;;;;3.83;2.55;;;;;;;15.09;74.59;96176.81;4986310;28;20054;-74
2021/10/04 03:31:44;;;;;;;3.17;2.20;;;;;;;15.11;74.54;96178.06;4986750;28;20752;-75
2021/10/04 03:34:12;;;;;;;3.78;2.60;;;;;;;15.09;74.79;96176.81;4986630;28;20050;-76
2021/10/04 03:36:39;;;;;;;6.28;2.67;;;;;;;15.09;74.60;96182.31;4987375;28;20095;-75
2021/10/04 03:39:08;;;;;;;4.93;2.67;;;;;;;15.06;74.98;96188.47;4985943;28;20057;-75
2021/10/04 03:41:34;;;;;;;5.70;2.90;;;;;;;15.04;75.38;96179.81;4987381;28;20060;-75
2021/10/04 03:44:01;;;;;;;4.43;2.63;;;;;;;15.04;75.33;96196.28;4985973;28;20051;-75
2021/10/04 03:46:27;;;;;;;4.65;2.45;;;;;;;15.03;75.70;96195.44;4986726;28;20046;-75
2021/10/04 03:48:54;;;;;;;5.07;2.50;;;;;;;15.00;75.92;96184.41;4986323;28;20054;-74
2021/10/04 03:51:21;;;;;;;5.53;2.90;;;;;;;15.04;75.22;96185.31;4984974;28;20049;-76
2021/10/04 03:53:47;;;;;;;5.60;2.90;;;;;;;15.06;75.06;96191.22;4981119;28;20066;-75
2021/10/04 03:56:15;;;;;;;7.32;3.30;;;;;;;15.00;75.04;96190.69;4965982;28;20058;-74
2021/10/04 03:58:41;;;;;;;30.90;4.20;;;;;;;14.96;74.91;96189.00;4966077;28;20054;-75
2021/10/04 04:01:08;;;;;;;14.63;3.50;;;;;;;14.96;75.00;96208.19;4967219;28;20133;-75
2021/10/04 04:03:34;;;;;;;3.65;2.42;;;;;;;14.94;75.05;96196.78;4987103;28;20050;-75
2021/10/04 04:06:01;;;;;;;7.60;2.92;;;;;;;14.92;75.17;96199.06;4986099;28;20055;-75
2021/10/04 04:08:29;;;;;;;3.80;2.30;;;;;;;14.90;75.19;96191.19;4986636;28;20046;-75
2021/10/04 04:10:55;;;;;;;9.02;2.97;;;;;;;14.87;75.21;96198.16;4985603;28;20054;-75
2021/10/04 04:13:23;;;;;;;3.60;2.20;;;;;;;14.83;75.41;96197.28;4986218;28;20085;-74
2021/10/04 04:15:50;;;;;;;4.45;2.42;;;;;;;14.79;75.51;96201.06;4986090;28;20069;-75
2021/10/04 04:18:16;;;;;;;6.07;2.75;;;;;;;14.74;76.05;96199.38;4985756;28;20062;-74
2021/10/04 04:20:43;;;;;;;5.55;2.70;;;;;;;14.69;76.14;96199.59;4986197;28;20061;-75
2021/10/04 04:23:09;;;;;;;3.78;2.38;;;;;;;14.65;76.31;96195.97;4983182;28;20054;-75
2021/10/04 04:25:36;;;;;;;5.20;2.50;;;;;;;14.61;76.36;96195.84;4986231;28;20061;-75
2021/10/04 04:28:03;;;;;;;4.68;2.88;;;;;;;14.57;76.12;96199.66;4985296;28;20054;-74
2021/10/04 04:30:31;;;;;;;5.70;2.90;;;;;;;14.49;75.98;96200.59;4985602;28;20058;-74
2021/10/04 04:32:57;;;;;;;5.03;2.85;;;;;;;14.47;76.29;96203.69;4985560;28;20061;-75
2021/10/04 04:35:24;;;;;;;5.75;3.10;;;;;;;14.50;76.31;96196.69;4985640;28;20050;-75
2021/10/04 04:37:50;;;;;;;4.55;3.08;;;;;;;14.50;76.28;96194.75;4985329;28;20059;-74
2021/10/04 04:40:19;;;;;;;5.95;3.20;;;;;;;14.49;76.19;96200.59;4985013;28;20058;-74
2021/10/04 04:42:46;;;;;;;8.18;2.97;;;;;;;14.44;76.50;96198.06;4985526;28;20039;-75
2021/10/04 04:45:15;;;;;;;5.65;3.20;;;;;;;14.44;76.76;96211.75;4984966;28;20058;-75
2021/10/04 04:47:44;;;;;;;6.47;2.88;;;;;;;14.42;76.90;96209.38;4986178;28;20055;-77
2021/10/04 04:50:11;;;;;;;4.60;3.15;;;;;;;14.40;77.20;96208.09;4984535;28;20054;-75
2021/10/04 04:52:38;;;;;;;6.47;3.40;;;;;;;14.36;77.04;96211.53;4984683;28;20058;-75
2021/10/04 04:55:05;;;;;;;4.63;2.83;;;;;;;14.37;76.94;96215.09;4984056;28;20054;-74
2021/10/04 04:57:31;;;;;;;6.97;3.15;;;;;;;14.44;76.44;96214.50;4986079;28;20073;-75
2021/10/04 04:59:59;;;;;;;8.32;3.20;;;;;;;14.42;76.30;96220.31;4984794;28;20141;-74
2021/10/04 05:02:25;;;;;;;4.78;2.83;;;;;;;14.41;76.69;96226.94;4984370;28;20127;-73
2021/10/04 05:04:53;;;;;;;7.35;3.30;;;;;;;14.36;76.67;96233.47;4985093;28;20054;-73
2021/10/04 05:07:19;;;;;;;5.75;2.95;;;;;;;14.29;76.98;96233.22;4984934;28;20050;-74
2021/10/04 05:09:46;;;;;;;6.25;2.70;;;;;;;14.26;77.12;96231.19;4985350;28;20050;-74
2021/10/04 05:12:12;;;;;;;4.05;2.55;;;;;;;14.26;77.23;96238.63;4985269;28;20058;-74
2021/10/04 05:14:39;;;;;;;7.65;3.15;;;;;;;14.29;76.74;96238.72;4985075;28;20050;-76
2021/10/04 05:17:05;;;;;;;5.38;2.83;;;;;;;14.31;76.41;96236.44;4984470;28;20050;-75
2021/10/04 05:19:32;;;;;;;4.55;2.75;;;;;;;14.28;76.13;96242.59;4985748;28;20058;-74
2021/10/04 05:21:59;;;;;;;7.18;3.40;;;;;;;14.21;76.54;96242.38;4982217;28;20061;-75
2021/10/04 05:24:26;;;;;;;9.80;3.63;;;;;;;14.17;77.00;96236.00;4984975;28;20129;-75
2021/10/04 05:26:56;;;;;;;8.07;3.58;;;;;;;14.18;76.87;96237.59;4984925;28;20058;-75
2021/10/04 05:29:22;;;;;;;7.65;3.30;;;;;;;14.19;76.45;96232.91;4984773;28;20119;-75
2021/10/04 05:31:49;;;;;;;4.80;3.10;;;;;;;14.16;76.16;96228.94;4985304;28;20045;-75
2021/10/04 05:34:15;;;;;;;5.85;3.40;;;;;;;14.12;76.69;96228.00;4984587;28;20053;-76
2021/10/04 05:36:42;;;;;;;5.00;2.75;;;;;;;14.09;76.80;96229.50;4985355;28;20411;-76
2021/10/04 05:39:09;;;;;;;4.35;2.95;;;;;;;14.10;76.68;96235.78;4983734;28;20065;-76
2021/10/04 05:41:36;;;;;;;4.93;3.00;;;;;;;14.08;76.82;96232.56;4985871;28;20051;-77
2021/10/04 05:44:02;;;;;;;7.45;3.00;;;;;;;14.04;77.31;96240.69;4983547;28;20050;-75
2021/10/04 05:46:29;;;;;;;6.10;2.92;;;;;;;14.08;76.65;96241.56;4985742;28;20058;-76
2021/10/04 05:48:55;;;;;;;4.93;2.85;;;;;;;14.08;76.31;96241.56;4984327;28;20073;-76
2021/10/04 05:51:22;;;;;;;5.38;3.00;;;;;;;14.07;76.92;96244.66;4983165;28;20055;-77
2021/10/04 05:53:48;;;;;;;5.72;2.78;;;;;;;14.06;76.84;96238.41;4984135;28;20050;-76
2021/10/04 05:56:16;;;;;;;5.60;3.10;;;;;;;14.09;76.70;96231.41;4984788;28;20129;-76
2021/10/04 05:58:43;;;;;;;8.73;3.60;;;;;;;14.12;77.01;96238.16;4985066;28;20053;-76
2021/10/04 06:01:10;;;;;;;4.82;3.03;;;;;;;14.13;76.86;96239.75;4984094;28;20050;-76
2021/10/04 06:03:36;;;;;;;5.18;3.13;;;;;;;14.13;76.60;96245.22;4985209;28;20061;-76
2021/10/04 06:06:03;;;;;;;4.20;2.80;;;;;;;14.12;76.87;96249.91;4984638;28;20054;-75
2021/10/04 06:08:29;;;;;;;6.50;3.03;;;;;;;14.12;76.60;96255.38;4985156;28;20054;-76
2021/10/04 06:10:56;;;;;;;5.25;2.80;;;;;;;14.10;76.95;96263.97;4984009;28;20054;-75
2021/10/04 06:13:24;;;;;;;6.25;3.45;;;;;;;14.12;77.50;96271.81;4984357;28;20053;-76
2021/10/04 06:15:50;;;;;;;6.65;3.10;;;;;;;14.20;77.24;96270.09;4983910;28;20058;-76
2021/10/04 06:18:18;;;;;;;7.57;3.13;;;;;;;14.27;77.18;96257.44;4984065;28;20058;-75
2021/10/04 06:20:45;;;;;;;3.92;2.70;;;;;;;14.34;77.35;96268.59;4984140;28;20641;-76
2021/10/04 06:23:12;;;;;;;4.47;2.70;;;;;;;14.41;77.29;96272.69;4983103;28;20078;-75
2021/10/04 06:25:39;;;;;;;5.05;2.85;;;;;;;14.52;77.12;96262.91;4984591;28;20046;-75
2021/10/04 06:28:05;;;;;;;5.50;2.38;;;;;;;14.61;77.41;96267.09;4983341;28;20054;-76
2021/10/04 06:30:33;;;;;;;6.35;2.83;;;;;;;14.73;77.20;96273.72;4984792;28;20054;-76
2021/10/04 06:33:00;;;;;;;5.30;2.90;;;;;;;14.83;76.47;96273.25;4984316;28;20520;-76
2021/10/04 06:35:26;;;;;;;4.32;2.50;;;;;;;14.89;75.72;96280.06;4987225;28;20054;-76
2021/10/04 06:37:53;;;;;;;4.65;2.40;;;;;;;14.99;75.76;96276.03;4986794;28;20050;-76
2021/10/04 06:40:19;;;;;;;4.80;2.20;;;;;;;15.09;75.48;96281.03;4987260;28;20054;-78
2021/10/04 06:42:47;;;;;;;3.72;2.03;;;;;;;15.15;74.86;96290.59;4987670;28;20049;-76
2021/10/04 06:45:14;;;;;;;3.45;2.20;;;;;;;15.18;74.23;96294.59;4986908;28;20061;-76
2021/10/04 06:47:42;;;;;;;4.28;1.92;;;;;;;15.24;73.90;96298.66;4987589;28;20054;-75
2021/10/04 06:50:10;;;;;;;5.30;2.10;;;;;;;15.29;74.12;96290.97;4986541;28;20158;-76
2021/10/04 06:52:36;;;;;;;3.45;1.85;;;;;;;15.33;73.84;96289.16;4986111;28;20558;-77
2021/10/04 06:55:03;;;;;;;3.58;1.98;;;;;;;15.37;73.48;96292.78;4986384;28;20060;-75
2021/10/04 06:57:30;;;;;;;3.83;2.00;;;;;;;15.45;73.32;96292.97;4988396;28;20057;-77
2021/10/04 06:59:56;;;;;;;3.08;1.88;;;;;;;15.51;73.46;96297.09;4986712;28;20162;-76
2021/10/04 07:02:23;;;;;;;6.07;1.83;;;;;;;15.57;72.92;96301.16;4987231;28;20057;-76
2021/10/04 07:04:51;;;;;;;4.28;1.90;;;;;;;15.63;73.38;96310.75;4986496;28;20066;-76
2021/10/04 07:07:17;;;;;;;3.95;2.10;;;;;;;15.64;72.93;96312.34;4986876;28;20520;-77
2021/10/04 07:09:44;;;;;;;3.00;1.83;;;;;;;15.64;73.08;96307.66;4987128;28;20421;-76
2021/10/04 07:12:10;;;;;;;3.65;1.98;;;;;;;15.64;72.99;96307.66;4986382;28;20058;-76
2021/10/04 07:14:37;;;;;;;7.63;2.22;;;;;;;15.59;72.21;96309.84;4987211;28;20050;-76
2021/10/04 07:17:04;;;;;;;4.45;2.08;;;;;;;15.58;71.96;96319.22;4985699;28;20064;-76
2021/10/04 07:19:30;;;;;;;4.07;2.00;;;;;;;15.57;72.54;96317.63;4987295;28;20531;-76
2021/10/04 07:21:59;;;;;;;5.00;2.15;;;;;;;15.59;72.55;96304.34;4984382;28;20532;-76
2021/10/04 07:24:25;;;;;;;4.07;2.15;;;;;;;15.68;72.95;96312.47;4986140;28;20042;-75
2021/10/04 07:26:52;;;;;;;4.75;2.05;;;;;;;15.72;73.22;96318.84;4986259;28;20042;-76
2021/10/04 07:29:19;;;;;;;2.78;1.83;;;;;;;15.72;72.20;96318.84;4986031;28;20274;-76
2021/10/04 07:31:47;;;;;;;3.63;2.05;;;;;;;15.74;72.14;96322.81;4986787;28;20049;-76
2021/10/04 07:34:14;;;;;;;3.90;1.80;;;;;;;15.74;72.34;96311.84;4985677;28;20050;-75
2021/10/04 07:36:40;;;;;;;3.33;2.15;;;;;;;15.79;72.75;96317.06;4986989;28;20046;-76
2021/10/04 07:39:10;;;;;;;3.58;2.00;;;;;;;15.84;73.03;96321.50;4986299;28;20053;-76
2021/10/04 07:41:37;;;;;;;10.07;2.58;;;;;;;15.94;73.18;96325.69;4987585;28;20054;-76
2021/10/04 07:44:04;;;;;;;3.63;2.15;;;;;;;16.01;72.25;96320.38;4985020;28;20050;-75
2021/10/04 07:46:31;;;;;;;8.75;3.10;;;;;;;16.11;71.21;96325.34;4987123;28;20046;-76
2021/10/04 07:48:57;;;;;;;11.73;3.17;;;;;;;16.14;71.11;96330.13;4985927;28;20053;-76
2021/10/04 07:51:24;;;;;;;8.90;2.83;;;;;;;16.16;71.94;96327.81;4986049;28;20516;-76
2021/10/04 07:53:51;;;;;;;17.75;3.92;;;;;;;16.26;72.40;96335.53;4986231;28;20046;-76
2021/10/04 07:56:19;;;;;;;3.95;2.25;;;;;;;16.34;71.47;96340.06;4985912;28;20056;-76
2021/10/04 07:58:46;;;;;;;4.28;2.85;;;;;;;16.37;70.99;96339.31;4986595;28;20050;-76
2021/10/04 08:01:13;;;;;;;4.25;2.33;;;;;;;16.39;70.87;96348.03;4985500;28;20068;-76
2021/10/04 08:03:40;;;;;;;3.83;2.40;;;;;;;16.41;70.45;96351.22;4986617;28;20054;-76
2021/10/04 08:06:08;;;;;;;6.20;2.20;;;;;;;16.46;71.08;96354.84;4985278;28;20077;-76
2021/10/04 08:08:34;;;;;;;4.85;1.90;;;;;;;16.51;71.42;96360.88;4986569;28;20529;-76
2021/10/04 08:11:01;;;;;;;6.20;2.15;;;;;;;16.51;70.29;96357.31;4985574;28;20050;-77
2021/10/04 08:13:28;;;;;;;3.47;1.90;;;;;;;16.46;69.77;96354.84;4986182;28;20047;-76
2021/10/04 08:15:55;;;;;;;3.30;2.05;;;;;;;16.44;69.83;96361.50;4985717;28;20062;-76
2021/10/04 08:18:21;;;;;;;3.03;2.17;;;;;;;16.49;69.02;96370.59;4985183;28;20370;-76
2021/10/04 08:20:48;;;;;;;4.00;2.45;;;;;;;16.46;69.33;96368.59;4985998;28;20451;-75
2021/10/04 08:23:14;;;;;;;5.47;2.45;;;;;;;16.46;69.39;96368.59;4983520;28;20058;-76
2021/10/04 08:25:41;;;;;;;4.32;2.20;;;;;;;16.40;69.57;96376.31;4986050;28;20505;-77
2021/10/04 08:28:07;;;;;;;2.85;1.98;;;;;;;16.40;69.87;96377.09;4986196;28;20062;-75
2021/10/04 08:30:35;;;;;;;4.72;2.20;;;;;;;16.38;69.51;96373.91;4986653;28;20046;-76
2021/10/04 08:33:02;;;;;;;6.25;2.30;;;;;;;16.35;69.27;96374.63;4984824;28;20552;-73
2021/10/04 08:35:28;;;;;;;2.38;1.65;;;;;;;16.38;69.77;96378.59;4985954;28;20129;-76
2021/10/04 08:37:55;;;;;;;11.60;3.85;;;;;;;16.36;69.18;96376.22;4985136;28;20054;-76
2021/10/04 08:40:22;;;;;;;5.70;2.45;;;;;;;16.42;69.72;96374.78;4985066;28;20095;-75
2021/10/04 08:42:48;;;;;;;3.58;1.88;;;;;;;16.46;68.78;96374.88;4985232;28;20413;-75
2021/10/04 08:45:15;;;;;;;3.30;1.80;;;;;;;16.41;68.81;96373.19;4985049;28;20046;-75
2021/10/04 08:47:43;;;;;;;4.43;1.80;;;;;;;16.36;68.24;96370.72;4985489;28;20054;-76
2021/10/04 08:50:13;;;;;;;4.13;1.80;;;;;;;16.37;68.72;96366.81;4984621;28;20961;-77
2021/10/04 08:52:40;;;;;;;3.10;1.90;;;;;;;16.34;68.60;96367.53;4985349;28;20100;-76
2021/10/04 08:55:08;;;;;;;4.28;2.00;;;;;;;16.34;68.78;96378.53;4983827;28;20053;-76
2021/10/04 08:57:35;;;;;;;5.68;1.90;;;;;;;16.37;68.99;96372.31;4985305;28;20050;-76
2021/10/04 09:00:01;;;;;;;2.47;1.65;;;;;;;16.40;68.89;96371.59;4984740;28;20054;-76
2021/10/04 09:02:30;;;;;;;6.53;1.75;;;;;;;16.41;68.94;96378.69;4985367;28;20045;-77
2021/10/04 09:05:10;;;;;;;1.75;1.33;;;;;;;16.42;68.71;96379.50;4984988;28;20062;-79
2021/10/04 09:07:41;;;;;;;1.88;1.40;;;;;;;16.39;69.04;96380.19;4985055;28;20061;-76
2021/10/04 09:10:10;;;;;;;6.03;1.75;;;;;;;16.35;69.46;96380.13;4984878;28;20046;-76
2021/10/04 09:12:51;;;;;;;3.78;1.90;;;;;;;16.31;69.52;96383.91;4984687;28;20798;-76
2021/10/04 09:15:23;;;;;;;3.85;2.10;;;;;;;16.29;69.52;96391.72;4985034;28;20050;-75
2021/10/04 09:17:50;;;;;;;4.47;1.50;;;;;;;16.30;69.96;96399.63;4984486;28;20133;-76
2021/10/04 09:20:18;;;;;;;2.92;1.70;;;;;;;16.27;69.55;96405.00;4985152;28;20069;-76
2021/10/04 09:22:45;;;;;;;4.13;1.52;;;;;;;16.21;69.47;96407.22;4983358;28;20787;-76
2021/10/04 09:25:12;;;;;;;2.28;1.50;;;;;;;16.18;69.77;96408.75;4984539;28;20054;-76
2021/10/04 09:27:41;;;;;;;4.53;1.92;;;;;;;16.11;69.91;96413.22;4985350;28;20050;-76
2021/10/04 09:30:10;;;;;;;3.13;1.75;;;;;;;16.05;69.94;96420.13;4984156;28;20054;-76
2021/10/04 09:32:39;;;;;;;2.88;1.58;;;;;;;15.99;70.38;96405.06;4985850;28;20129;-76
2021/10/04 09:35:17;;;;;;;4.07;1.88;;;;;;;15.96;69.63;96411.25;4983920;28;20061;-76
2021/10/04 09:37:47;;;;;;;2.92;1.50;;;;;;;15.85;70.08;96406.28;4985728;28;20046;-76
2021/10/04 09:40:32;;;;;;;3.65;2.15;;;;;;;15.87;70.64;96414.19;4984486;28;20054;-77
2021/10/04 09:42:59;;;;;;;4.47;1.90;;;;;;;15.74;70.94;96421.66;4984918;28;20046;-77
2021/10/04 09:45:26;;;;;;;3.67;2.17;;;;;;;15.65;71.12;96423.75;4984775;28;20054;-76
2021/10/04 09:47:54;;;;;;;3.00;2.00;;;;;;;15.60;71.28;96432.19;4984924;28;20061;-75
2021/10/04 09:50:26;;;;;;;4.30;2.08;;;;;;;15.56;72.01;96436.81;4985141;28;20050;-76
2021/10/04 09:52:55;;;;;;;4.57;2.20;;;;;;;15.49;71.83;96442.06;4984048;28;20049;-76
2021/10/04 09:55:27;;;;;;;8.32;3.30;;;;;;;15.47;71.67;96438.88;4984825;28;22712;-76
2021/10/04 09:57:59;;;;;;;3.92;2.80;;;;;;;15.36;72.17;96444.84;4984363;28;20058;-76
2021/10/04 10:00:27;;;;;;;4.05;2.28;;;;;;;15.32;72.22;96445.88;4984679;28;20502;-77
2021/10/04 10:02:57;;;;;;;3.47;2.17;;;;;;;15.31;72.50;96447.84;4984257;28;20054;-75
2021/10/04 10:05:26;;;;;;;4.95;2.20;;;;;;;15.23;72.51;96454.22;4984042;28;20762;-75
2021/10/04 10:07:54;;;;;;;4.18;2.20;;;;;;;15.22;72.35;96441.66;4986752;28;20047;-76
2021/10/04 10:10:22;;;;;;;5.53;2.35;;;;;;;15.13;72.45;96449.22;4987389;28;20066;-75
2021/10/04 10:12:49;;;;;;;5.13;2.42;;;;;;;15.08;72.64;96443.97;4988600;28;20072;-76
2021/10/04 10:15:20;;;;;;;7.97;2.40;;;;;;;15.02;73.47;96448.88;4987168;28;20058;-76
2021/10/04 10:17:49;;;;;;;4.47;2.78;;;;;;;15.08;72.70;96443.97;4988466;28;20436;-75
2021/10/04 10:20:19;;;;;;;4.18;2.60;;;;;;;15.12;72.82;96447.63;4987246;28;20524;-77
2021/10/04 10:22:47;;;;;;;4.13;2.58;;;;;;;15.12;73.20;96439.41;4987784;28;20058;-76
2021/10/04 10:25:29;;;;;;;4.95;3.05;;;;;;;15.11;73.09;96443.28;4987766;28;20057;-76
2021/10/04 10:27:55;;;;;;;4.85;2.85;;;;;;;15.11;72.90;96446.03;4987568;28;20065;-76
2021/10/04 10:30:25;;;;;;;6.72;2.60;;;;;;;15.22;73.11;96452.63;4988104;28;20066;-76
2021/10/04 10:32:52;;;;;;;4.40;2.47;;;;;;;15.32;72.90;96454.91;4987055;28;20054;-76
2021/10/04 10:35:38;;;;;;;3.53;2.63;;;;;;;15.39;72.92;96462.53;4988162;28;20058;-75
2021/10/04 10:38:06;;;;;;;4.93;2.60;;;;;;;15.48;72.01;96462.44;4986244;28;20340;-77
2021/10/04 10:40:32;;;;;;;4.07;2.78;;;;;;;15.51;71.23;96454.31;4988000;28;20051;-78
2021/10/04 10:43:01;;;;;;;4.32;2.90;;;;;;;15.58;71.46;96459.19;4987732;28;20064;-76
2021/10/04 10:45:42;;;;;;;3.80;2.70;;;;;;;15.61;71.81;96461.25;4987773;28;20057;-76
2021/10/04 10:48:10;;;;;;;3.15;2.20;;;;;;;15.61;71.02;96451.06;4987923;28;20061;-75
2021/10/04 10:50:42;;;;;;;4.13;2.38;;;;;;;15.55;71.36;96457.94;4986625;28;20046;-76
2021/10/04 10:53:20;;;;;;;3.40;2.50;;;;;;;15.49;71.32;96458.53;4986163;28;20061;-76
2021/10/04 10:55:53;;;;;;;6.05;2.90;;;;;;;15.49;71.25;96464.03;4987143;28;20065;-76
2021/10/04 10:58:23;;;;;;;6.72;2.75;;;;;;;15.50;71.37;96471.09;4987055;28;20058;-76
2021/10/04 11:01:03;;;;;;;4.75;3.00;;;;;;;15.46;71.51;96464.72;4987258;28;20066;-75
2021/10/04 11:03:31;;;;;;;3.50;3.00;;;;;;;15.50;71.49;96465.59;4967707;28;20051;-75
2021/10/04 11:06:02;;;;;;;6.30;2.92;;;;;;;15.51;71.01;96473.53;4968212;28;20101;-75
2021/10/04 11:08:59;;;;;;;3.25;2.50;;;;;;;15.51;71.20;96475.47;4967066;28;20043;-75
2021/10/04 11:11:28;;;;;;;4.82;3.35;;;;;;;15.46;71.36;96471.00;4967623;28;20047;-74
2021/10/04 11:14:00;;;;;;;3.70;2.80;;;;;;;15.33;71.80;96472.97;4967082;28;20055;-75
2021/10/04 11:16:49;;;;;;;7.70;3.20;;;;;;;15.34;71.94;96480.03;4967397;28;20042;-75
2021/10/04 11:19:23;;;;;;;4.05;2.83;;;;;;;15.31;71.82;96475.28;4966952;28;20863;-76
2021/10/04 11:21:51;;;;;;;5.32;3.03;;;;;;;15.29;72.81;96472.06;4975814;28;20061;-74
2021/10/04 11:24:21;;;;;;;6.47;3.28;;;;;;;15.34;72.94;96476.50;4987028;28;20057;-74
2021/10/04 11:26:48;;;;;;;3.72;2.97;;;;;;;15.33;73.58;96478.44;4986513;28;20042;-75
2021/10/04 11:29:18;;;;;;;7.85;3.15;;;;;;;15.20;74.43;96496.09;4986763;28;20173;-76
2021/10/04 11:31:45;;;;;;;4.78;3.25;;;;;;;15.08;75.67;96487.84;4987208;28;20073;-74
2021/10/04 11:34:14;;;;;;;9.18;4.95;;;;;;;15.00;76.72;96494.25;4986449;28;20054;-75
2021/10/04 11:36:43;;;;;;;6.60;4.35;;;;;;;14.97;77.36;96492.19;4987111;28;20099;-74